Time;durP1;ratioP1;P1;durP2;ratioP2;P2;SDS_P1;SDS_P2;PMS_P1;PMS_P2;Temp;Humidity;BMP_temperature;BMP_pressure;BME280_temperature;BME280_humidity;BME280_pressure;Samples;Min_cycle;Max_cycle;Signal;HPM_P1;HPM_P2
2023/12/30 00:00:17;;;;;;;25.10;12.50;;;;;;;10.30;64.24;101055.84;5088811;28;20368;-75
2023/12/30 00:02:42;;;;;;;24.27;12.65;;;;;;;10.33;63.91;101044.03;5088820;28;20034;-76
2023/12/30 00:05:08;;;;;;;18.48;10.23;;;;;;;10.33;63.77;101035.97;5089242;28;20039;-77
2023/12/30 00:07:34;;;;;;;17.40;9.70;;;;;;;10.35;63.91;101028.66;5089950;28;20420;-75
2023/12/30 00:09:59;;;;;;;16.48;9.45;;;;;;;10.52;63.61;101052.44;5094706;28;20118;-74
2023/12/30 00:12:25;;;;;;;18.00;9.18;;;;;;;10.41;63.67;101017.44;5093627;28;20035;-74
2023/12/30 00:14:50;;;;;;;16.33;8.40;;;;;;;10.65;63.41;101042.50;5092912;28;20027;-75
2023/12/30 00:17:16;;;;;;;16.67;8.90;;;;;;;10.64;62.97;101032.69;5097314;28;20028;-76
2023/12/30 00:19:44;;;;;;;12.23;8.25;;;;;;;10.78;63.09;101048.69;5098276;28;20410;-75
2023/12/30 00:22:11;;;;;;;20.20;8.10;;;;;;;10.82;62.78;101050.13;5094188;28;20039;-75
2023/12/30 00:24:36;;;;;;;9.93;7.60;;;;;;;10.80;62.58;101038.66;5093351;28;20031;-75
2023/12/30 00:27:02;;;;;;;16.27;9.10;;;;;;;10.91;62.40;101038.72;5092226;28;20419;-75
2023/12/30 00:29:27;;;;;;;11.05;7.63;;;;;;;10.89;61.71;101029.88;5092389;28;20031;-76
2023/12/30 00:31:53;;;;;;;12.05;7.03;;;;;;;10.91;62.05;101027.94;5092507;28;20140;-76
2023/12/30 00:34:18;;;;;;;10.45;7.93;;;;;;;10.99;61.85;101040.78;5092185;28;20075;-75
2023/12/30 00:36:44;;;;;;;13.77;8.38;;;;;;;10.99;61.75;101040.78;5092311;28;20035;-75
2023/12/30 00:39:10;;;;;;;11.13;7.40;;;;;;;10.87;61.42;101013.00;5092154;28;20028;-76
2023/12/30 00:41:36;;;;;;;17.65;8.15;;;;;;;10.98;61.35;101038.25;5092374;28;20024;-76
2023/12/30 00:44:01;;;;;;;13.55;7.25;;;;;;;10.97;61.76;101039.19;5092041;28;20031;-76
2023/12/30 00:46:27;;;;;;;13.20;8.27;;;;;;;11.02;61.61;101035.19;5091971;28;20472;-76
2023/12/30 00:48:52;;;;;;;15.82;7.10;;;;;;;11.05;61.52;101034.94;5092929;28;20040;-75
2023/12/30 00:51:18;;;;;;;15.30;8.13;;;;;;;10.88;61.55;101020.09;5092523;28;20105;-74
2023/12/30 00:53:43;;;;;;;14.68;8.10;;;;;;;11.04;61.50;101043.16;5093591;28;20024;-76
2023/12/30 00:56:09;;;;;;;12.93;9.10;;;;;;;10.87;61.05;101015.69;5092346;28;20058;-76
2023/12/30 00:58:35;;;;;;;16.80;11.02;;;;;;;10.87;61.17;101052.50;5092785;28;20024;-75
2023/12/30 01:01:00;;;;;;;20.92;11.82;;;;;;;10.77;61.30;101036.19;5092523;28;20027;-74
2023/12/30 01:03:26;;;;;;;27.30;12.35;;;;;;;10.54;61.23;101012.88;5092746;28;20032;-74
2023/12/30 01:05:52;;;;;;;17.90;12.18;;;;;;;10.60;61.80;101033.91;5092136;28;20028;-74
2023/12/30 01:08:18;;;;;;;15.75;10.60;;;;;;;10.56;61.88;101010.03;5095159;28;20431;-75
2023/12/30 01:10:44;;;;;;;17.25;8.95;;;;;;;10.74;61.89;101036.41;5100078;28;20020;-75
2023/12/30 01:13:09;;;;;;;14.82;8.10;;;;;;;10.78;61.91;101029.84;5093675;28;20396;-75
2023/12/30 01:15:35;;;;;;;16.27;9.02;;;;;;;10.73;61.54;101010.47;5090748;28;20392;-75
2023/12/30 01:18:02;;;;;;;19.83;8.68;;;;;;;10.72;61.63;100989.09;5090824;28;20054;-76
2023/12/30 01:20:28;;;;;;;13.32;9.00;;;;;;;10.80;61.47;101000.13;5091135;28;20021;-75
2023/12/30 01:22:53;;;;;;;12.90;9.45;;;;;;;10.86;61.25;101003.19;5092021;28;20791;-75
2023/12/30 01:25:19;;;;;;;15.77;9.30;;;;;;;10.93;61.31;101015.22;5090980;28;20044;-74
2023/12/30 01:27:45;;;;;;;12.23;8.55;;;;;;;10.89;61.25;101008.34;5091974;28;20032;-76
2023/12/30 01:30:10;;;;;;;19.50;11.00;;;;;;;10.80;61.17;101022.50;5091564;28;20028;-74
2023/12/30 01:32:36;;;;;;;19.38;10.48;;;;;;;10.72;61.38;101013.31;5091533;28;20016;-77
2023/12/30 01:35:01;;;;;;;18.90;11.00;;;;;;;10.75;61.23;101022.00;5091543;28;20168;-73
2023/12/30 01:37:27;;;;;;;19.95;11.90;;;;;;;10.65;61.60;101018.28;5087927;28;20044;-75
2023/12/30 01:39:52;;;;;;;19.80;12.27;;;;;;;10.51;61.49;101015.78;5089797;28;20450;-75
2023/12/30 01:42:18;;;;;;;28.08;12.52;;;;;;;10.48;62.07;101013.31;5090153;28;20020;-76
2023/12/30 01:44:43;;;;;;;23.13;13.85;;;;;;;10.40;62.14;101004.94;5089875;28;20510;-74
2023/12/30 01:47:09;;;;;;;20.15;12.43;;;;;;;10.38;61.81;101018.53;5090013;28;20028;-76
2023/12/30 01:49:35;;;;;;;18.73;13.73;;;;;;;10.29;62.20;101019.22;5090044;28;20084;-75
2023/12/30 01:52:02;;;;;;;30.80;14.32;;;;;;;10.10;62.23;101005.38;5089968;28;20107;-75
2023/12/30 01:54:28;;;;;;;18.45;12.93;;;;;;;10.02;62.35;101001.53;5090229;28;20027;-75
2023/12/30 01:56:54;;;;;;;31.25;13.63;;;;;;;10.05;62.57;101020.97;5089770;28;20027;-75
2023/12/30 01:59:21;;;;;;;24.83;14.35;;;;;;;10.05;62.93;101015.59;5090156;28;20480;-75
2023/12/30 02:01:46;;;;;;;25.58;14.30;;;;;;;10.07;62.91;101020.84;5092218;28;21015;-75
2023/12/30 02:04:12;;;;;;;34.03;15.45;;;;;;;10.02;62.82;101021.22;5092014;28;20063;-74
2023/12/30 02:06:39;;;;;;;30.25;16.95;;;;;;;10.01;63.24;101015.94;5089408;28;20069;-76
2023/12/30 02:09:05;;;;;;;29.65;14.63;;;;;;;10.00;63.18;101023.13;5089317;28;20106;-75
2023/12/30 02:11:31;;;;;;;31.25;14.52;;;;;;;9.94;62.96;101012.00;5089345;28;20311;-75
2023/12/30 02:13:57;;;;;;;35.20;15.82;;;;;;;9.89;63.04;101019.50;5089064;28;20028;-76
2023/12/30 02:16:22;;;;;;;27.35;15.75;;;;;;;9.92;62.93;101019.28;5089348;28;20028;-75
2023/12/30 02:18:48;;;;;;;27.42;15.18;;;;;;;9.88;63.35;101023.19;5089199;28;20028;-75
2023/12/30 02:21:14;;;;;;;25.35;14.32;;;;;;;9.66;63.31;100994.31;5089054;28;20544;-76
2023/12/30 02:23:39;;;;;;;27.83;14.68;;;;;;;9.75;63.47;101018.66;5089373;28;20039;-75
2023/12/30 02:26:08;;;;;;;29.83;15.15;;;;;;;9.82;63.82;101019.94;5089029;28;20044;-75
2023/12/30 02:28:34;;;;;;;37.67;15.98;;;;;;;9.86;63.63;101012.53;5087693;28;20525;-76
2023/12/30 02:30:59;;;;;;;25.65;14.20;;;;;;;9.78;63.44;101005.00;5088994;28;20163;-76
2023/12/30 02:33:25;;;;;;;23.45;13.88;;;;;;;9.74;63.39;101000.84;5088800;28;20032;-76
2023/12/30 02:35:51;;;;;;;30.98;15.07;;;;;;;9.60;63.70;100987.53;5088703;28;20028;-74
2023/12/30 02:38:17;;;;;;;26.48;14.48;;;;;;;9.69;64.05;101016.41;5086353;28;20064;-75
2023/12/30 02:40:44;;;;;;;33.92;13.55;;;;;;;9.69;63.86;101011.03;5089159;28;20127;-74
2023/12/30 02:43:10;;;;;;;27.73;14.18;;;;;;;9.74;63.93;101019.66;5088807;28;20032;-75
2023/12/30 02:45:36;;;;;;;22.95;13.57;;;;;;;9.71;63.84;101017.19;5089258;28;20024;-75
2023/12/30 02:48:02;;;;;;;21.33;13.15;;;;;;;9.58;63.94;100992.16;5088780;28;20032;-76
2023/12/30 02:50:28;;;;;;;23.40;13.50;;;;;;;9.69;64.36;101012.91;5087053;28;20055;-77
2023/12/30 02:52:53;;;;;;;23.25;14.20;;;;;;;9.68;64.14;101014.72;5092387;28;20435;-75
2023/12/30 02:55:19;;;;;;;28.70;13.63;;;;;;;9.76;63.86;101015.00;5090959;28;20020;-74
2023/12/30 02:57:44;;;;;;;23.67;13.55;;;;;;;9.75;63.94;101017.81;5087101;28;20048;-75
2023/12/30 03:00:10;;;;;;;27.98;13.32;;;;;;;9.77;63.92;101024.81;5088571;28;20119;-76
2023/12/30 03:02:36;;;;;;;29.92;13.35;;;;;;;9.69;63.82;101016.41;5088402;28;20031;-76
2023/12/30 03:05:02;;;;;;;29.17;13.52;;;;;;;9.62;63.92;101001.72;5088257;28;20096;-75
2023/12/30 03:07:28;;;;;;;25.52;14.15;;;;;;;9.74;64.09;101022.34;5088020;28;20028;-74
2023/12/30 03:09:53;;;;;;;24.70;13.73;;;;;;;9.64;63.80;101015.03;5085767;28;20404;-75
2023/12/30 03:12:19;;;;;;;23.33;13.90;;;;;;;9.65;63.89;101028.38;5088486;28;20031;-75
2023/12/30 03:14:44;;;;;;;28.88;13.55;;;;;;;9.54;63.99;101017.50;5087974;28;20115;-73
2023/12/30 03:17:10;;;;;;;29.73;14.05;;;;;;;9.54;64.49;101028.25;5088119;28;20040;-74
2023/12/30 03:19:36;;;;;;;28.05;13.77;;;;;;;9.42;64.60;101015.69;5087769;28;20510;-76
2023/12/30 03:22:01;;;;;;;29.88;13.65;;;;;;;9.51;64.72;101031.16;5087718;28;20031;-75
2023/12/30 03:24:27;;;;;;;24.05;13.73;;;;;;;9.50;64.83;101032.13;5085471;28;20494;-74
2023/12/30 03:26:53;;;;;;;26.00;14.40;;;;;;;9.48;64.66;101036.75;5087923;28;20044;-74
2023/12/30 03:29:19;;;;;;;23.58;14.00;;;;;;;9.47;64.68;101029.66;5085021;28;20086;-75
2023/12/30 03:31:45;;;;;;;29.65;14.98;;;;;;;9.53;65.01;101039.97;5087817;28;20028;-76
2023/12/30 03:34:11;;;;;;;30.10;15.35;;;;;;;9.54;64.72;101040.84;5087816;28;20411;-75
2023/12/30 03:36:36;;;;;;;22.13;15.32;;;;;;;9.53;64.46;101039.97;5088080;28;20111;-74
2023/12/30 03:39:04;;;;;;;24.13;15.00;;;;;;;9.49;64.54;101048.34;5088218;28;20114;-75
2023/12/30 03:41:29;;;;;;;22.42;14.10;;;;;;;9.50;64.70;101048.25;5087214;28;20462;-75
2023/12/30 03:43:55;;;;;;;30.85;14.40;;;;;;;9.49;64.91;101054.56;5091487;28;20032;-76
2023/12/30 03:46:20;;;;;;;25.67;14.02;;;;;;;9.51;64.97;101043.75;5092016;28;20111;-75
2023/12/30 03:48:46;;;;;;;43.40;15.52;;;;;;;9.51;64.78;101055.31;5087483;28;20032;-75
2023/12/30 03:51:11;;;;;;;29.50;14.20;;;;;;;9.49;64.75;101054.56;5087318;28;20043;-75
2023/12/30 03:53:37;;;;;;;25.52;14.32;;;;;;;9.49;64.84;101051.88;5087352;28;20101;-76
2023/12/30 03:56:02;;;;;;;29.23;15.80;;;;;;;9.51;65.05;101057.16;5087748;28;20036;-75
2023/12/30 03:58:28;;;;;;;26.98;14.70;;;;;;;9.52;64.75;101065.09;5087409;28;20028;-76
2023/12/30 04:00:53;;;;;;;37.08;16.63;;;;;;;9.46;64.87;101070.03;5087358;28;20032;-76
2023/12/30 04:03:19;;;;;;;30.00;14.63;;;;;;;9.36;64.77;101042.13;5087235;28;20027;-75
2023/12/30 04:05:44;;;;;;;27.77;14.50;;;;;;;9.43;64.77;101059.50;5087427;28;20025;-75
2023/12/30 04:08:10;;;;;;;27.48;13.90;;;;;;;9.46;65.09;101060.16;5087498;28;20033;-74
2023/12/30 04:10:35;;;;;;;19.80;14.25;;;;;;;9.49;65.04;101065.31;5087365;28;20025;-74
2023/12/30 04:13:01;;;;;;;29.50;17.05;;;;;;;9.48;64.76;101068.13;5087213;28;20081;-75
2023/12/30 04:15:26;;;;;;;32.83;15.25;;;;;;;9.34;65.13;101073.56;5087283;28;20101;-74
2023/12/30 04:17:52;;;;;;;25.45;13.98;;;;;;;9.21;65.26;101052.09;5087349;28;20109;-74
2023/12/30 04:20:17;;;;;;;28.70;14.55;;;;;;;9.38;65.40;101070.59;5087484;28;20036;-75
2023/12/30 04:22:43;;;;;;;23.98;14.20;;;;;;;9.37;65.33;101071.53;5087750;28;20036;-75
2023/12/30 04:25:08;;;;;;;27.52;14.57;;;;;;;9.35;65.37;101076.16;5087224;28;20048;-74
2023/12/30 04:27:35;;;;;;;27.05;14.88;;;;;;;9.25;65.66;101075.06;5088145;28;20046;-75
2023/12/30 04:30:01;;;;;;;30.17;14.40;;;;;;;9.11;65.78;101048.34;5087491;28;20040;-75
2023/12/30 04:32:26;;;;;;;27.15;15.38;;;;;;;9.26;66.09;101068.75;5087703;28;20029;-76
2023/12/30 04:34:52;;;;;;;31.88;14.45;;;;;;;9.32;65.84;101072.84;5091378;28;20024;-75
2023/12/30 04:37:18;;;;;;;29.88;14.13;;;;;;;9.26;65.41;101060.69;5092158;28;20031;-75
2023/12/30 04:39:44;;;;;;;27.38;13.55;;;;;;;9.36;65.50;101064.44;5087386;28;20032;-72
2023/12/30 04:42:10;;;;;;;24.60;12.57;;;;;;;9.39;65.38;101071.44;5087313;28;20348;-74
2023/12/30 04:44:35;;;;;;;24.42;13.85;;;;;;;9.37;65.58;101076.03;5087404;28;20393;-74
2023/12/30 04:47:00;;;;;;;27.83;14.75;;;;;;;9.35;65.22;101078.84;5086756;28;20028;-75
2023/12/30 04:49:26;;;;;;;29.33;15.25;;;;;;;9.08;65.41;101043.19;5087074;28;20796;-76
2023/12/30 04:51:51;;;;;;;29.05;16.70;;;;;;;9.30;65.53;101075.59;5087167;28;20028;-75
2023/12/30 04:54:17;;;;;;;32.63;16.17;;;;;;;9.31;65.63;101071.97;5089785;28;20462;-75
2023/12/30 04:56:42;;;;;;;29.38;14.20;;;;;;;9.33;65.67;101078.06;5090923;28;20081;-75
2023/12/30 04:59:09;;;;;;;24.50;13.32;;;;;;;9.12;65.54;101039.31;5088246;28;20055;-75
2023/12/30 05:01:35;;;;;;;28.92;13.63;;;;;;;9.32;65.72;101068.31;5090530;28;20024;-75
2023/12/30 05:04:01;;;;;;;21.45;13.27;;;;;;;9.37;65.73;101070.66;5090519;28;20036;-75
2023/12/30 05:06:27;;;;;;;31.23;13.02;;;;;;;9.34;66.00;101066.38;5090802;28;20028;-75
2023/12/30 05:08:53;;;;;;;31.40;13.82;;;;;;;9.32;65.91;101068.31;5090090;28;20093;-74
2023/12/30 05:11:19;;;;;;;31.17;13.90;;;;;;;9.41;65.92;101072.19;5090649;28;20164;-75
2023/12/30 05:13:45;;;;;;;26.75;12.93;;;;;;;9.26;65.55;101066.06;5090229;28;20047;-76
2023/12/30 05:16:11;;;;;;;23.02;13.85;;;;;;;9.35;65.76;101067.25;5090539;28;20727;-75
2023/12/30 05:18:36;;;;;;;25.02;13.05;;;;;;;9.37;65.65;101081.41;5090827;28;20114;-75
2023/12/30 05:21:02;;;;;;;20.90;13.77;;;;;;;9.40;65.49;101082.06;5091136;28;20099;-73
2023/12/30 05:23:28;;;;;;;29.02;12.18;;;;;;;9.34;65.73;101076.25;5090502;28;20096;-75
2023/12/30 05:25:53;;;;;;;35.08;16.83;;;;;;;9.39;65.60;101088.38;5093806;28;20668;-75
2023/12/30 05:28:19;;;;;;;30.02;16.15;;;;;;;9.25;65.72;101089.34;5094958;28;20027;-74
2023/12/30 05:30:44;;;;;;;32.00;18.63;;;;;;;9.27;65.95;101094.59;5091031;28;20122;-74
2023/12/30 05:33:10;;;;;;;44.28;18.33;;;;;;;9.32;65.67;101100.53;5090035;28;20113;-74
2023/12/30 05:35:36;;;;;;;33.80;16.77;;;;;;;9.33;65.68;101086.13;5089784;28;20024;-75
2023/12/30 05:38:03;;;;;;;33.42;17.38;;;;;;;9.36;65.52;101096.66;5090504;28;20020;-78
2023/12/30 05:40:29;;;;;;;37.83;19.38;;;;;;;9.32;65.89;101084.44;5088542;28;20076;-74
2023/12/30 05:42:55;;;;;;;27.67;16.05;;;;;;;9.34;65.60;101087.84;5089934;28;20024;-75
2023/12/30 05:45:21;;;;;;;32.17;18.45;;;;;;;9.35;65.67;101097.63;5089791;28;20048;-76
2023/12/30 05:47:46;;;;;;;42.83;20.40;;;;;;;9.34;65.85;101087.84;5089478;28;20164;-75
2023/12/30 05:50:12;;;;;;;35.38;21.13;;;;;;;9.34;65.57;101085.19;5090013;28;20495;-74
2023/12/30 05:52:38;;;;;;;53.00;19.33;;;;;;;9.26;65.82;101058.00;5089495;28;20020;-74
2023/12/30 05:55:04;;;;;;;50.50;21.30;;;;;;;9.46;65.69;101089.69;5089669;28;20108;-77
2023/12/30 05:57:31;;;;;;;43.20;22.05;;;;;;;9.49;65.91;101089.47;5089665;28;20076;-74
2023/12/30 05:59:56;;;;;;;85.28;22.02;;;;;;;9.52;65.43;101085.72;5089941;28;20494;-75
2023/12/30 06:02:22;;;;;;;44.20;17.88;;;;;;;9.59;65.50;101087.88;5089373;28;20056;-75
2023/12/30 06:04:48;;;;;;;49.22;20.92;;;;;;;9.60;65.66;101089.56;5087784;28;20028;-74
2023/12/30 06:07:13;;;;;;;36.80;16.33;;;;;;;9.63;65.84;101085.84;5089522;28;20020;-75
2023/12/30 06:09:39;;;;;;;30.92;16.98;;;;;;;9.66;65.55;101086.47;5089350;28;20024;-75
2023/12/30 06:12:05;;;;;;;33.00;19.25;;;;;;;9.75;65.39;101088.50;5090375;28;20044;-74
2023/12/30 06:14:30;;;;;;;39.42;18.40;;;;;;;9.53;64.85;101065.97;5089623;28;20024;-73
2023/12/30 06:16:56;;;;;;;41.72;19.15;;;;;;;9.70;65.24;101093.34;5091005;28;20031;-76
2023/12/30 06:19:21;;;;;;;48.83;20.08;;;;;;;9.67;64.88;101100.75;5094587;28;20027;-75
2023/12/30 06:21:47;;;;;;;41.03;21.23;;;;;;;9.45;65.25;101085.28;5091315;28;20082;-75
2023/12/30 06:24:13;;;;;;;49.80;21.70;;;;;;;9.61;65.26;101112.78;5089598;28;20047;-76
2023/12/30 06:26:41;;;;;;;36.75;19.85;;;;;;;9.39;65.16;101093.75;5086565;28;20058;-75
2023/12/30 06:29:08;;;;;;;38.78;20.50;;;;;;;9.53;64.93;101103.56;5069688;28;20063;-75
2023/12/30 06:31:34;;;;;;;65.82;21.40;;;;;;;9.55;65.23;101123.97;5088937;28;20524;-74
2023/12/30 06:33:59;;;;;;;53.10;20.98;;;;;;;9.45;65.44;101100.56;5088739;28;20068;-76
2023/12/30 06:36:25;;;;;;;42.42;20.88;;;;;;;9.49;64.95;101108.28;5085889;28;20040;-76
2023/12/30 06:38:51;;;;;;;37.30;21.80;;;;;;;9.54;64.78;101122.22;5086076;28;20028;-74
2023/12/30 06:41:19;;;;;;;43.15;21.50;;;;;;;9.51;65.11;101119.75;5086008;28;20040;-75
2023/12/30 06:43:45;;;;;;;47.10;20.48;;;;;;;9.55;64.86;101115.91;5086034;28;20520;-75
2023/12/30 06:46:11;;;;;;;48.47;22.10;;;;;;;9.58;64.66;101123.75;5085934;28;20135;-74
2023/12/30 06:48:36;;;;;;;68.72;37.42;;;;;;;9.50;64.45;101115.38;5085848;28;20096;-75
2023/12/30 06:51:02;;;;;;;51.83;24.02;;;;;;;9.51;64.52;101121.59;5085928;28;20513;-76
2023/12/30 06:53:31;;;;;;;59.55;23.70;;;;;;;9.54;64.72;101122.22;5085829;28;20024;-75
2023/12/30 06:56:03;;;;;;;55.38;23.77;;;;;;;9.35;64.67;101099.47;5102751;28;20036;-75
2023/12/30 06:58:29;;;;;;;50.60;24.75;;;;;;;9.50;64.56;101115.38;5086278;28;20060;-74
2023/12/30 07:00:55;;;;;;;51.80;24.67;;;;;;;9.63;64.30;101128.81;5085997;28;20032;-74
2023/12/30 07:03:21;;;;;;;49.53;23.33;;;;;;;9.48;64.56;101117.28;5086094;28;20036;-76
2023/12/30 07:05:46;;;;;;;59.67;24.98;;;;;;;9.55;65.00;101118.59;5086613;28;20032;-76
2023/12/30 07:08:12;;;;;;;48.00;23.10;;;;;;;9.64;64.60;101122.47;5088763;28;20454;-77
2023/12/30 07:10:38;;;;;;;42.47;23.15;;;;;;;9.59;64.73;101105.81;5093279;28;20039;-74
2023/12/30 07:13:05;;;;;;;59.00;24.52;;;;;;;9.75;64.50;101126.09;5091421;28;20028;-76
2023/12/30 07:15:30;;;;;;;48.83;24.00;;;;;;;9.73;64.66;101122.69;5088632;28;20031;-75
2023/12/30 07:17:56;;;;;;;59.97;26.10;;;;;;;9.88;64.75;101126.09;5087465;28;20028;-74
2023/12/30 07:20:21;;;;;;;63.88;25.13;;;;;;;9.87;64.22;101110.97;5088088;28;20024;-75
2023/12/30 07:22:47;;;;;;;58.92;24.40;;;;;;;10.07;64.28;101139.09;5088389;28;20085;-76
2023/12/30 07:25:13;;;;;;;46.25;20.48;;;;;;;10.13;64.30;101131.50;5088004;28;20093;-76
2023/12/30 07:27:39;;;;;;;45.17;20.77;;;;;;;10.07;63.59;101131.03;5088025;28;20049;-74
2023/12/30 07:30:06;;;;;;;44.78;20.35;;;;;;;10.18;64.07;101136.56;5087775;28;20035;-74
2023/12/30 07:32:32;;;;;;;51.20;22.70;;;;;;;10.33;63.50;101144.38;5088108;28;20024;-75
2023/12/30 07:34:58;;;;;;;49.42;21.58;;;;;;;10.45;63.31;101137.25;5087840;28;20081;-77
2023/12/30 07:37:24;;;;;;;59.05;24.00;;;;;;;10.53;63.28;101137.53;5085386;28;20032;-75
2023/12/30 07:39:50;;;;;;;48.85;24.02;;;;;;;10.53;63.30;101107.09;5087744;28;20028;-75
2023/12/30 07:42:18;;;;;;;44.63;25.15;;;;;;;10.81;62.84;101139.06;5087818;28;20051;-75
2023/12/30 07:44:43;;;;;;;44.13;22.10;;;;;;;10.91;62.60;101129.34;5087930;28;20042;-75
2023/12/30 07:47:09;;;;;;;53.08;22.45;;;;;;;10.94;62.73;101112.97;5088012;28;20438;-77
2023/12/30 07:49:35;;;;;;;49.88;21.33;;;;;;;11.20;62.38;101129.81;5087749;28;20032;-74
2023/12/30 07:52:00;;;;;;;54.53;20.30;;;;;;;11.24;61.86;101112.47;5087968;28;20020;-75
2023/12/30 07:54:27;;;;;;;65.60;21.20;;;;;;;11.46;61.13;101131.41;5088067;28;20089;-77
2023/12/30 07:56:52;;;;;;;68.65;24.60;;;;;;;11.60;61.06;101133.00;5087564;28;20108;-73
2023/12/30 07:59:18;;;;;;;77.53;23.33;;;;;;;11.65;61.16;101120.88;5087862;28;20480;-77
2023/12/30 08:01:44;;;;;;;47.78;22.80;;;;;;;11.94;60.75;101135.69;5089342;28;20088;-76
2023/12/30 08:04:10;;;;;;;71.65;26.13;;;;;;;12.12;60.63;101135.19;5089799;28;20032;-77
2023/12/30 08:06:37;;;;;;;51.55;24.58;;;;;;;12.28;60.25;101143.78;5104234;28;20112;-77
2023/12/30 08:09:04;;;;;;;65.60;24.38;;;;;;;12.40;59.47;101142.78;5089902;28;20035;-74
2023/12/30 08:11:29;;;;;;;49.05;22.52;;;;;;;12.45;59.42;101116.28;5087565;28;20388;-74
2023/12/30 08:13:55;;;;;;;67.53;25.17;;;;;;;12.70;58.97;101126.78;5087374;28;20032;-76
2023/12/30 08:16:20;;;;;;;61.28;22.10;;;;;;;12.93;58.46;101141.97;5087881;28;20035;-75
2023/12/30 08:18:46;;;;;;;47.03;20.15;;;;;;;13.11;57.90;101136.91;5087657;28;20089;-73
2023/12/30 08:21:11;;;;;;;42.15;17.50;;;;;;;13.21;57.33;101145.91;5087594;28;20031;-76
2023/12/30 08:23:37;;;;;;;68.57;19.27;;;;;;;13.40;56.94;101137.13;5087589;28;20044;-77
2023/12/30 08:26:02;;;;;;;32.80;16.35;;;;;;;13.58;56.36;101143.66;5087718;28;20389;-75
2023/12/30 08:28:28;;;;;;;41.58;17.98;;;;;;;13.73;55.53;101149.63;5088958;28;20031;-74
2023/12/30 08:30:54;;;;;;;30.83;16.83;;;;;;;13.83;54.96;101127.03;5091530;28;20058;-76
2023/12/30 08:33:20;;;;;;;33.40;14.25;;;;;;;13.95;54.25;101139.50;5091421;28;20067;-74
2023/12/30 08:35:48;;;;;;;28.65;13.50;;;;;;;13.99;54.06;101119.31;5091176;28;20170;-76
2023/12/30 08:38:15;;;;;;;30.88;15.68;;;;;;;14.24;53.61;101145.06;5091189;28;20024;-76
2023/12/30 08:40:41;;;;;;;50.97;18.27;;;;;;;14.34;53.28;101129.72;5088860;28;21248;-74
2023/12/30 08:43:06;;;;;;;29.25;14.85;;;;;;;14.47;52.88;101135.78;5090884;28;20107;-76
2023/12/30 08:45:32;;;;;;;47.80;18.95;;;;;;;14.53;52.88;101128.94;5091281;28;20032;-75
2023/12/30 08:47:57;;;;;;;37.97;17.50;;;;;;;14.47;52.67;101108.69;5091403;28;20360;-76
2023/12/30 08:50:23;;;;;;;55.00;20.70;;;;;;;14.78;52.51;101128.44;5091442;28;20031;-76
2023/12/30 08:52:48;;;;;;;53.00;20.25;;;;;;;14.85;52.28;101105.22;5092469;28;20036;-76
2023/12/30 08:55:14;;;;;;;60.13;20.33;;;;;;;15.02;51.84;101115.38;5092983;28;20129;-75
2023/12/30 08:57:39;;;;;;;57.40;22.38;;;;;;;15.15;51.55;101115.94;5091021;28;20466;-75
2023/12/30 09:00:09;;;;;;;77.47;21.08;;;;;;;15.24;51.38;101108.81;5091093;28;20024;-75
2023/12/30 09:02:35;;;;;;;66.30;27.05;;;;;;;15.16;51.42;101095.13;5091078;28;20024;-74
2023/12/30 09:05:02;;;;;;;66.82;24.75;;;;;;;15.20;51.53;101100.09;5091110;28;20132;-74
2023/12/30 09:07:32;;;;;;;64.22;23.65;;;;;;;15.26;51.47;101104.94;5090793;28;20036;-74
2023/12/30 09:09:59;;;;;;;70.38;27.08;;;;;;;15.25;51.70;101097.84;5090584;28;20496;-74
2023/12/30 09:12:25;;;;;;;73.47;27.55;;;;;;;15.06;51.77;101070.75;5090575;28;20100;-75
2023/12/30 09:14:50;;;;;;;66.00;27.50;;;;;;;15.18;51.78;101077.72;5090683;28;20391;-75
2023/12/30 09:17:16;;;;;;;69.30;27.27;;;;;;;15.22;51.96;101078.31;5090403;28;20108;-75
2023/12/30 09:19:41;;;;;;;60.78;24.70;;;;;;;15.25;51.33;101076.16;5090433;28;20838;-76
2023/12/30 09:22:08;;;;;;;61.10;23.52;;;;;;;15.24;51.53;101077.16;5090315;28;20116;-75
2023/12/30 09:24:33;;;;;;;53.05;26.52;;;;;;;15.33;51.36;101069.16;5090141;28;20089;-75
2023/12/30 09:26:59;;;;;;;47.33;25.05;;;;;;;15.47;51.34;101072.28;5090448;28;20044;-76
2023/12/30 09:29:25;;;;;;;58.55;23.63;;;;;;;15.52;51.13;101058.31;5090293;28;20060;-76
2023/12/30 09:31:50;;;;;;;32.55;15.93;;;;;;;15.74;50.53;101058.84;5090374;28;20111;-73
2023/12/30 09:34:16;;;;;;;38.20;18.23;;;;;;;15.90;49.71;101057.34;5070776;28;20484;-77
2023/12/30 09:36:41;;;;;;;27.58;15.25;;;;;;;15.94;48.98;101058.75;5090482;28;20412;-75
2023/12/30 09:39:10;;;;;;;40.15;15.93;;;;;;;15.92;48.82;101045.34;5089999;28;20055;-77
2023/12/30 09:41:39;;;;;;;33.88;15.07;;;;;;;16.03;48.28;101045.16;5089460;28;20036;-77
2023/12/30 09:44:06;;;;;;;29.80;14.35;;;;;;;16.17;48.61;101049.22;5092185;28;20031;-74
2023/12/30 09:46:32;;;;;;;46.95;14.40;;;;;;;16.22;47.78;101047.78;5095086;28;20035;-76
2023/12/30 09:48:58;;;;;;;27.92;11.93;;;;;;;16.11;47.45;101039.84;5090987;28;20051;-75
2023/12/30 09:51:27;;;;;;;31.00;12.48;;;;;;;16.17;47.66;101041.94;5089513;28;20056;-76
2023/12/30 09:53:53;;;;;;;27.75;13.57;;;;;;;16.22;47.56;101042.34;5089352;28;20024;-75
2023/12/30 09:56:19;;;;;;;28.50;13.25;;;;;;;16.22;47.55;101041.47;5089510;28;20035;-75
2023/12/30 09:58:46;;;;;;;28.73;13.30;;;;;;;16.27;47.48;101034.59;5089747;28;20057;-75
2023/12/30 10:01:12;;;;;;;27.27;13.05;;;;;;;16.33;47.23;101033.97;5089719;28;20035;-76
2023/12/30 10:03:37;;;;;;;33.58;13.65;;;;;;;16.38;47.41;101029.97;5089348;28;20062;-76
2023/12/30 10:06:04;;;;;;;35.53;12.73;;;;;;;16.45;47.28;101023.75;5089505;28;20056;-75
2023/12/30 10:08:30;;;;;;;31.60;13.93;;;;;;;16.51;47.37;101015.00;5089197;28;20030;-74
2023/12/30 10:10:57;;;;;;;47.00;16.90;;;;;;;16.60;46.84;101008.72;5089554;28;20024;-77
2023/12/30 10:13:25;;;;;;;40.40;15.02;;;;;;;16.61;46.60;101006.81;5089272;28;20106;-75
2023/12/30 10:15:52;;;;;;;35.47;16.02;;;;;;;16.63;46.39;101007.53;5089275;28;20028;-74
2023/12/30 10:18:19;;;;;;;33.03;15.02;;;;;;;16.68;46.49;101006.06;5089030;28;20051;-74
2023/12/30 10:20:46;;;;;;;29.95;14.65;;;;;;;16.73;46.43;101002.88;5088984;28;20081;-75
2023/12/30 10:23:13;;;;;;;36.40;14.15;;;;;;;16.75;46.44;100990.00;5089018;28;20032;-76
2023/12/30 10:25:39;;;;;;;20.70;9.80;;;;;;;16.79;45.93;100975.06;5089223;28;20047;-75
2023/12/30 10:28:06;;;;;;;25.75;10.27;;;;;;;16.99;45.31;101005.66;5089330;28;20060;-76
2023/12/30 10:30:32;;;;;;;35.63;12.25;;;;;;;17.04;45.25;101006.88;5089237;28;20395;-77
2023/12/30 10:33:23;;;;;;;36.33;11.15;;;;;;;17.13;45.19;101000.50;5089109;28;20024;-76
2023/12/30 10:35:49;;;;;;;22.73;11.13;;;;;;;17.09;45.02;100996.41;5050730;28;20040;-75
2023/12/30 10:38:14;;;;;;;24.05;11.05;;;;;;;17.02;45.23;100976.31;5068810;28;20129;-76
2023/12/30 10:40:40;;;;;;;23.88;11.85;;;;;;;17.14;45.00;100987.78;5066619;28;20036;-75
2023/12/30 10:43:06;;;;;;;29.92;14.30;;;;;;;17.05;45.18;100965.13;5065689;28;20055;-76
2023/12/30 10:45:32;;;;;;;26.33;13.15;;;;;;;17.05;45.07;100978.72;5065336;28;20059;-76
2023/12/30 10:47:59;;;;;;;20.45;11.52;;;;;;;17.13;45.20;100978.75;5032092;28;20083;-75
2023/12/30 10:50:26;;;;;;;28.60;12.23;;;;;;;17.19;44.82;100978.13;5065698;28;20044;-75
2023/12/30 10:53:02;;;;;;;37.22;18.38;;;;;;;17.11;44.47;100961.78;5065275;28;20116;-76
2023/12/30 10:55:35;;;;;;;21.52;12.52;;;;;;;17.12;44.55;100966.22;5065420;28;20028;-74
2023/12/30 10:58:13;;;;;;;24.42;12.98;;;;;;;16.98;44.87;100947.72;5065544;28;20751;-74
2023/12/30 11:00:42;;;;;;;39.50;14.23;;;;;;;17.09;44.82;100961.09;5065025;28;20132;-75
2023/12/30 11:03:08;;;;;;;26.77;13.32;;;;;;;17.06;44.46;100955.97;5065277;28;20037;-75
2023/12/30 11:05:46;;;;;;;22.63;12.13;;;;;;;17.00;44.49;100950.31;5065022;28;20071;-75
2023/12/30 11:08:12;;;;;;;21.63;12.40;;;;;;;16.94;44.96;100956.38;5065291;28;20111;-77